To NAV CANADA Home Page Login to a new session Search on AWWS site Feedback and Comments Disclaimer Vers la page française équivalente Tips FAQ What's new on the site To the Forecasts and Observations / NOTAM section To "File a Flight Plan" website Publications and other links Update of the User's profile FIC Telephone Numbers My Weather Data Folder Route Weather Data Regional Weather Data Local Weather Data To the Forecasts and Observations / NOTAM section
Request Generated 08/26/2016 at 04:53:51 UTC . Weather information available at that time is displayed.

METAR/TAF

If you find any discrepancies between the coded METAR/TAF and the plain language METAR/TAF please use the coded METAR/TAF. LWIS bulletins are not decoded in plain language.

CALGARY/SPRINGBANK/AB    (show WxCam)

METAR CYBW 260400Z AUTO 33008KT 9SM SCT055 BKN069 BKN084 OVC140 10/08 A3023 RMK SLP254=
METAR
LOCATION
CYBW - CALGARY/SPRINGBANK/AB
DATE - TIME
26 AUGUST 2016 - 0400 UTC
WIND
330 TRUE @ 8  KNOTS
VISIBILITY
9 STAT.  MILES
RUNWAY VISUAL RANGE
WEATHER
CLOUDINESS
SCATTERED CLOUDS (3/8 - 4/8) 5500  FT
BROKEN CLOUDS (5/8 - 7/8) 6900  FT
BROKEN CLOUDS (5/8 - 7/8) 8400  FT
OVERCAST 14000  FT
TEMP / DEWPOINT
10 C / 8 C
ALTIMETER
30.23 IN HG
RECENT WEATHER
WIND SHEAR

SPECI CYBW 260314Z AUTO 35016G22KT 9SM FEW030 SCT038 BKN055 OVC100 11/08 A3023 RMK SLP252 DENSITY ALT 4000FT=
SPECI
LOCATION
CYBW - CALGARY/SPRINGBANK/AB
DATE - TIME
26 AUGUST 2016 - 0314 UTC
WIND
350 TRUE @ 16  KNOTS
GUSTS
22 KNOTS
VISIBILITY
9 STAT.  MILES
RUNWAY VISUAL RANGE
WEATHER
CLOUDINESS
FEW CLOUDS (1/8 - 2/8) 3000  FT
SCATTERED CLOUDS (3/8 - 4/8) 3800  FT
BROKEN CLOUDS (5/8 - 7/8) 5500  FT
OVERCAST 10000  FT
TEMP / DEWPOINT
11 C / 8 C
ALTIMETER
30.23 IN HG
RECENT WEATHER
WIND SHEAR

METAR CYBW 260300Z AUTO 32005KT 9SM FEW055 SCT066 BKN110 10/08 A3022 RMK SLP249=
METAR
LOCATION
CYBW - CALGARY/SPRINGBANK/AB
DATE - TIME
26 AUGUST 2016 - 0300 UTC
WIND
320 TRUE @ 5  KNOTS
VISIBILITY
9 STAT.  MILES
RUNWAY VISUAL RANGE
WEATHER
CLOUDINESS
FEW CLOUDS (1/8 - 2/8) 5500  FT
SCATTERED CLOUDS (3/8 - 4/8) 6600  FT
BROKEN CLOUDS (5/8 - 7/8) 11000  FT
TEMP / DEWPOINT
10 C / 8 C
ALTIMETER
30.22 IN HG
RECENT WEATHER
WIND SHEAR

METAR CYBW 260200Z AUTO 32008KT 9SM SCT130 13/09 A3021 RMK SLP243 DENSITY ALT 4300FT=
METAR
LOCATION
CYBW - CALGARY/SPRINGBANK/AB
DATE - TIME
26 AUGUST 2016 - 0200 UTC
WIND
320 TRUE @ 8  KNOTS
VISIBILITY
9 STAT.  MILES
RUNWAY VISUAL RANGE
WEATHER
CLOUDINESS
SCATTERED CLOUDS (3/8 - 4/8) 13000  FT
TEMP / DEWPOINT
13 C / 9 C
ALTIMETER
30.21 IN HG
RECENT WEATHER
WIND SHEAR

*** REMARK        : Forecast period has ended; this was the last TAF issued
TAF AMD CYBW 260324Z 2603/2604 32008KT P6SM SCT030 BKN050 OVC100 TEMPO 2603/2604 VRB15G25KT P6SM -SHRA RMK FCST BASED ON AUTO OBS. NXT FCST WILL BE ISSUED AT 261145Z=
AMENDED TAF
LOCATION

CYBW - CALGARY/SPRINGBANK/AB
VALIDITY [UTC]
26 AUG - 0324 to
26 AUG - 0400
 
TIMES
[UTC]
WIND
[DEGREES TRUE]
VISIBILITY
[STAT. MILES]
WEATHER
CLOUDINESS
[FEET AGL]
 
26 AUG - 0300 to
26 AUG - 0400
320 @ 8 KNOTS
6+
NIL
3000 SCATTERED
5000 BROKEN
10000 OVERCAST
TEMPORARY CHANGES
26 AUG - 0300 to
26 AUG - 0400
VARIABLE @ 15 KNOTS
GUSTS 25 KNOTS
6+
LIGHT RAIN SHOWER
 
REMARKS
THE FORECAST IS BASED ON AUTOMATIC OBSERVATIONS - THE NEXT FORECAST WILL BE ISSUED AT 1145 UTC ON DAY 26


Your time UTC time
Weather data provided by Environment Canada and NAV CANADA